createdAt,value
2022-08-24T00:01:10.654Z,19.98
2022-08-24T00:03:45.083Z,19.99
2022-08-24T00:06:19.961Z,20.10
2022-08-24T00:08:50.584Z,20.02
2022-08-24T00:11:20.798Z,19.97
2022-08-24T00:13:49.213Z,19.88
2022-08-24T00:16:20.285Z,19.54
2022-08-24T00:18:49.498Z,19.61
2022-08-24T00:21:19.445Z,19.45
2022-08-24T00:23:50.464Z,19.57
2022-08-24T00:26:19.278Z,19.31
2022-08-24T00:28:57.615Z,19.21
2022-08-24T00:31:26.697Z,19.29
2022-08-24T00:33:54.542Z,19.01
2022-08-24T00:36:24.983Z,18.96
2022-08-24T00:38:55.484Z,18.77
2022-08-24T00:41:23.611Z,18.56
2022-08-24T00:43:58.491Z,18.40
2022-08-24T00:50:11.998Z,18.29
2022-08-24T00:52:50.268Z,18.09
2022-08-24T00:55:20.872Z,18.52
2022-08-24T00:57:51.200Z,18.47
2022-08-24T01:01:20.808Z,18.26
2022-08-24T01:03:51.436Z,18.35
2022-08-24T01:06:21.397Z,18.26
2022-08-24T01:08:56.769Z,18.07
2022-08-24T01:11:29.239Z,17.81
2022-08-24T01:14:04.608Z,18.27
2022-08-24T01:16:50.281Z,17.89
2022-08-24T01:19:30.784Z,18.00
2022-08-24T01:22:07.382Z,17.97
2022-08-24T01:24:37.938Z,18.23
2022-08-24T01:27:06.317Z,18.29
2022-08-24T01:29:38.954Z,18.12
2022-08-24T01:32:07.345Z,18.31
2022-08-24T01:34:36.739Z,18.17
2022-08-24T01:37:11.182Z,17.99
2022-08-24T01:39:45.270Z,17.81
2022-08-24T01:42:14.375Z,17.94
2022-08-24T01:44:44.868Z,18.13
2022-08-24T01:47:17.023Z,17.58
2022-08-24T01:50:49.311Z,17.92
2022-08-24T01:53:17.443Z,17.94
2022-08-24T01:55:48.428Z,17.84
2022-08-24T01:58:16.323Z,17.86
2022-08-24T02:00:46.130Z,17.43
2022-08-24T02:03:14.028Z,18.19
2022-08-24T02:05:44.477Z,17.55
2022-08-24T02:08:13.744Z,17.47
2022-08-24T02:10:42.068Z,17.64
2022-08-24T02:13:17.707Z,17.32
2022-08-24T02:15:45.563Z,17.82
2022-08-24T02:18:15.963Z,17.37
2022-08-24T02:20:45.756Z,17.24
2022-08-24T02:23:13.851Z,17.24
2022-08-24T02:25:44.807Z,17.04
2022-08-24T02:28:12.460Z,17.20
2022-08-24T02:30:41.750Z,17.54
2022-08-24T02:33:10.262Z,17.21
2022-08-24T02:35:38.615Z,17.22
2022-08-24T02:38:07.164Z,17.29
2022-08-24T02:40:35.026Z,17.12
2022-08-24T02:43:04.016Z,16.93
2022-08-24T02:45:32.656Z,17.24
2022-08-24T02:48:03.282Z,16.92
2022-08-24T02:50:32.660Z,17.06
2022-08-24T02:53:01.693Z,17.04
2022-08-24T02:55:30.119Z,16.92
2022-08-24T02:57:57.996Z,16.68
2022-08-24T03:01:30.260Z,16.94
2022-08-24T03:04:00.433Z,16.73
2022-08-24T03:06:28.292Z,16.68
2022-08-24T03:08:57.017Z,16.96
2022-08-24T03:11:28.300Z,16.74
2022-08-24T03:13:57.591Z,16.58
2022-08-24T03:16:26.910Z,16.39
2022-08-24T03:18:54.802Z,16.45
2022-08-24T03:21:25.804Z,16.41
2022-08-24T03:23:54.097Z,16.54
2022-08-24T03:26:23.105Z,16.59
2022-08-24T03:28:52.640Z,16.57
2022-08-24T03:31:20.668Z,16.57
2022-08-24T03:33:49.169Z,16.58
2022-08-24T03:36:16.975Z,16.54
2022-08-24T03:38:50.966Z,16.46
2022-08-24T03:41:19.264Z,16.95
2022-08-24T03:44:49.690Z,16.62
2022-08-24T03:47:17.512Z,16.58
2022-08-24T03:49:47.262Z,16.48
2022-08-24T03:52:15.145Z,16.56
2022-08-24T03:54:44.690Z,16.65
2022-08-24T03:57:13.722Z,16.52
2022-08-24T03:59:46.718Z,16.21
2022-08-24T04:02:17.259Z,16.08
2022-08-24T04:04:45.799Z,15.92
2022-08-24T04:07:13.726Z,16.54
2022-08-24T04:09:46.164Z,16.54
2022-08-24T04:12:14.276Z,16.61
2022-08-24T04:14:44.356Z,16.61
2022-08-24T04:17:12.979Z,16.36
2022-08-24T04:19:57.722Z,16.22
2022-08-24T04:22:27.452Z,16.25
2022-08-24T04:24:56.786Z,16.44
2022-08-24T04:27:26.815Z,16.45
2022-08-24T04:29:58.195Z,16.09
2022-08-24T04:32:26.798Z,15.96
2022-08-24T04:34:54.422Z,15.96
2022-08-24T04:37:28.009Z,15.93
2022-08-24T04:40:02.858Z,15.91
2022-08-24T04:42:33.384Z,15.99
2022-08-24T04:45:01.490Z,16.27
2022-08-24T04:47:30.579Z,16.42
2022-08-24T04:49:58.620Z,16.19
2022-08-24T04:52:27.135Z,16.01
2022-08-24T04:54:55.197Z,16.06
2022-08-24T04:57:24.740Z,16.18
2022-08-24T04:59:57.734Z,16.23
2022-08-24T05:02:25.578Z,16.19
2022-08-24T05:04:54.197Z,16.24
2022-08-24T05:07:23.520Z,16.16
2022-08-24T05:09:52.328Z,16.19
2022-08-24T05:12:21.363Z,16.34
2022-08-24T05:14:52.221Z,16.58
2022-08-24T05:17:25.094Z,16.60
2022-08-24T05:19:53.728Z,16.61
2022-08-24T05:22:21.592Z,16.68
2022-08-24T05:24:49.506Z,16.58
2022-08-24T05:27:19.024Z,16.67
2022-08-24T05:29:47.158Z,16.81
2022-08-24T05:32:19.287Z,16.78
2022-08-24T05:34:47.067Z,16.78
2022-08-24T05:37:15.758Z,16.83
2022-08-24T05:39:45.355Z,17.05
2022-08-24T05:42:13.769Z,17.45
2022-08-24T05:44:42.490Z,17.54
2022-08-24T05:47:11.886Z,17.29
2022-08-24T05:49:41.828Z,17.30
2022-08-24T05:52:10.577Z,17.34
2022-08-24T05:54:38.998Z,17.51
2022-08-24T05:57:07.579Z,17.58
2022-08-24T05:59:40.653Z,17.60
2022-08-24T06:03:14.674Z,17.69
2022-08-24T06:05:49.596Z,17.90
2022-08-24T06:08:17.658Z,18.05
2022-08-24T06:10:49.083Z,18.19
2022-08-24T06:13:18.603Z,18.25
2022-08-24T06:19:28.145Z,18.72
2022-08-24T06:22:00.585Z,19.16
2022-08-24T06:24:43.892Z,19.33
2022-08-24T06:27:26.238Z,19.30
2022-08-24T06:29:55.880Z,19.44
2022-08-24T06:32:23.953Z,19.57
2022-08-24T06:34:51.967Z,19.80
2022-08-24T06:37:29.283Z,19.85
2022-08-24T06:39:59.498Z,19.81
2022-08-24T06:42:29.412Z,19.97
2022-08-24T06:44:57.310Z,20.15
2022-08-24T06:47:25.998Z,20.17
2022-08-24T06:49:54.292Z,20.21
2022-08-24T06:52:24.680Z,20.32
2022-08-24T06:54:53.371Z,20.43
2022-08-24T06:57:21.538Z,20.68
2022-08-24T06:59:49.609Z,20.79
2022-08-24T07:02:19.043Z,20.94
2022-08-24T07:04:49.612Z,21.15
2022-08-24T07:07:18.331Z,21.26
2022-08-24T07:09:47.637Z,21.57
2022-08-24T07:12:15.534Z,21.44
2022-08-24T07:14:45.617Z,21.57
2022-08-24T07:17:13.697Z,21.68
2022-08-24T07:19:42.793Z,21.96
2022-08-24T07:22:10.721Z,21.69
2022-08-24T07:24:38.928Z,21.97
2022-08-24T07:27:08.277Z,22.30
2022-08-24T07:29:48.778Z,22.33
2022-08-24T07:32:21.100Z,22.75
2022-08-24T07:34:50.320Z,22.67
2022-08-24T07:37:18.257Z,22.68
2022-08-24T07:39:46.370Z,22.78
2022-08-24T07:42:22.961Z,22.84
2022-08-24T07:44:54.244Z,22.88
2022-08-24T07:47:43.044Z,23.09
2022-08-24T07:50:11.379Z,23.24
2022-08-24T07:52:41.795Z,23.31
2022-08-24T07:55:12.938Z,23.40
2022-08-24T07:57:46.370Z,23.57
2022-08-24T08:00:17.493Z,23.86
2022-08-24T08:02:51.797Z,24.62
2022-08-24T08:05:22.722Z,24.65
2022-08-24T08:07:52.547Z,24.61
2022-08-24T08:10:20.541Z,24.47
2022-08-24T08:12:50.086Z,24.68
2022-08-24T08:15:19.251Z,24.81
2022-08-24T08:17:47.851Z,24.82
2022-08-24T08:20:24.329Z,24.88
2022-08-24T08:23:10.534Z,24.93
2022-08-24T08:25:38.946Z,25.40
2022-08-24T08:28:25.250Z,25.33
2022-08-24T08:30:55.036Z,25.36
2022-08-24T08:33:24.552Z,25.42
2022-08-24T08:35:54.813Z,25.63
2022-08-24T08:38:22.947Z,26.42
2022-08-24T08:40:57.239Z,25.76
2022-08-24T08:43:43.620Z,25.72
2022-08-24T08:46:32.362Z,25.66
2022-08-24T08:49:11.153Z,25.71
2022-08-24T08:51:57.318Z,25.64
2022-08-24T08:54:35.042Z,25.66
2022-08-24T08:57:53.590Z,26.03
2022-08-24T09:00:25.399Z,25.98
2022-08-24T09:03:18.361Z,26.12
2022-08-24T09:06:15.886Z,26.62
2022-08-24T09:08:59.432Z,26.47
2022-08-24T09:11:33.864Z,26.64
2022-08-24T09:14:31.046Z,26.72
2022-08-24T09:17:15.528Z,26.54
2022-08-24T09:19:56.690Z,26.99
2022-08-24T09:22:24.964Z,26.90
2022-08-24T09:25:24.843Z,27.23
2022-08-24T09:28:05.925Z,27.04
2022-08-24T09:30:48.149Z,26.83
2022-08-24T09:33:22.190Z,27.03
2022-08-24T09:36:10.793Z,27.27
2022-08-24T09:39:06.503Z,27.47
2022-08-24T09:42:25.879Z,27.61
2022-08-24T09:45:07.282Z,27.23
2022-08-24T09:48:08.182Z,27.93
2022-08-24T09:51:21.254Z,28.18
2022-08-24T09:54:24.892Z,28.00
2022-08-24T09:57:12.400Z,27.88
2022-08-24T10:00:08.716Z,27.83
2022-08-24T10:02:59.448Z,28.72
2022-08-24T10:05:37.025Z,28.19
2022-08-24T10:08:14.593Z,27.81
2022-08-24T10:10:50.304Z,28.21
2022-08-24T10:13:26.589Z,28.56
2022-08-24T10:16:09.730Z,28.82
2022-08-24T10:18:46.046Z,28.60
2022-08-24T10:21:22.238Z,28.81
2022-08-24T10:24:17.099Z,28.77
2022-08-24T10:27:14.505Z,28.98
2022-08-24T10:29:59.067Z,29.08
2022-08-24T10:32:40.287Z,28.69
2022-08-24T10:35:14.467Z,28.32
2022-08-24T10:38:13.853Z,28.49
2022-08-24T10:40:50.511Z,29.32
2022-08-24T10:43:48.841Z,29.19
2022-08-24T10:46:36.614Z,28.97
2022-08-24T10:49:58.691Z,28.44
2022-08-24T10:53:14.229Z,28.85
2022-08-24T10:55:46.218Z,28.87
2022-08-24T10:58:37.892Z,29.46
2022-08-24T11:01:19.020Z,29.94
2022-08-24T11:03:53.524Z,29.40
2022-08-24T11:06:22.742Z,29.19
2022-08-24T11:08:57.104Z,29.30
2022-08-24T11:11:32.824Z,29.23
2022-08-24T11:14:03.461Z,29.23
2022-08-24T11:16:36.050Z,29.95
2022-08-24T11:19:07.449Z,30.04
2022-08-24T11:21:49.126Z,30.16
2022-08-24T11:24:31.121Z,30.63
2022-08-24T11:27:06.993Z,30.00
2022-08-24T11:29:58.767Z,29.41
2022-08-24T11:32:29.729Z,29.68
2022-08-24T11:35:03.059Z,30.04
2022-08-24T11:37:34.308Z,31.29
2022-08-24T11:40:02.434Z,30.62
2022-08-24T11:42:39.400Z,30.47
2022-08-24T11:45:13.735Z,30.41
2022-08-24T11:47:53.935Z,31.15
2022-08-24T11:50:30.157Z,30.75
2022-08-24T11:53:12.096Z,30.48
2022-08-24T11:55:51.969Z,31.99
2022-08-24T11:58:37.088Z,31.77
2022-08-24T12:01:10.456Z,31.92
2022-08-24T12:03:50.600Z,32.17
2022-08-24T12:06:39.659Z,32.09
2022-08-24T12:09:15.207Z,32.06
2022-08-24T12:11:46.682Z,32.01
2022-08-24T12:14:23.271Z,32.14
2022-08-24T12:16:55.046Z,31.81
2022-08-24T12:19:27.290Z,32.87
2022-08-24T12:21:58.653Z,33.37
2022-08-24T12:24:31.495Z,33.09
2022-08-24T12:27:04.054Z,33.36
2022-08-24T12:29:37.356Z,33.51
2022-08-24T12:32:09.352Z,33.64
2022-08-24T12:34:49.713Z,33.27
2022-08-24T12:37:22.980Z,33.17
2022-08-24T12:39:56.833Z,32.89
2022-08-24T12:42:29.276Z,33.19
2022-08-24T12:45:02.892Z,32.62
2022-08-24T12:47:35.618Z,33.86
2022-08-24T12:50:06.644Z,34.29
2022-08-24T12:52:58.362Z,34.36
2022-08-24T12:55:54.885Z,34.11
2022-08-24T12:58:54.580Z,33.92
2022-08-24T13:01:33.756Z,34.47
2022-08-24T13:04:08.684Z,35.10
2022-08-24T13:06:43.951Z,35.24
2022-08-24T13:09:17.312Z,36.26
2022-08-24T13:11:45.157Z,36.80
2022-08-24T13:14:21.431Z,35.65
2022-08-24T13:17:08.526Z,35.44
2022-08-24T13:19:40.176Z,35.40
2022-08-24T13:22:38.440Z,35.22
2022-08-24T13:25:44.755Z,36.15
2022-08-24T13:28:33.104Z,36.05
2022-08-24T13:31:06.329Z,36.32
2022-08-24T13:33:43.758Z,38.25
2022-08-24T13:36:49.565Z,38.52
2022-08-24T13:39:48.125Z,37.18
2022-08-24T13:42:25.176Z,37.70
2022-08-24T13:45:16.344Z,39.00
2022-08-24T13:47:53.396Z,38.24
2022-08-24T13:50:35.956Z,39.96
2022-08-24T13:53:32.709Z,40.57
2022-08-24T13:56:20.438Z,36.57
2022-08-24T13:58:54.842Z,37.59
2022-08-24T14:01:31.105Z,39.00
2022-08-24T14:04:08.428Z,39.52
2022-08-24T14:06:41.704Z,40.00
2022-08-24T14:09:37.291Z,40.50
2022-08-24T14:12:14.908Z,39.79
2022-08-24T14:14:55.909Z,41.46
2022-08-24T14:17:47.212Z,41.45
2022-08-24T14:20:40.749Z,41.04
2022-08-24T14:23:22.816Z,40.99
2022-08-24T14:25:51.680Z,40.46
2022-08-24T14:28:39.734Z,41.38
2022-08-24T14:31:15.974Z,38.62
2022-08-24T14:33:54.037Z,36.06
2022-08-24T14:36:25.632Z,34.75
2022-08-24T14:39:07.930Z,34.72
2022-08-24T14:41:50.295Z,37.14
2022-08-24T14:44:35.460Z,37.86
2022-08-24T14:47:09.069Z,39.30
2022-08-24T14:49:45.116Z,39.55
2022-08-24T14:52:24.850Z,41.01
2022-08-24T14:55:05.317Z,41.63
2022-08-24T14:57:45.496Z,40.66
2022-08-24T15:00:16.891Z,41.03
2022-08-24T15:03:02.512Z,39.33
2022-08-24T15:05:40.297Z,40.58
2022-08-24T15:08:11.602Z,42.03
2022-08-24T15:10:45.883Z,41.81
2022-08-24T15:13:25.192Z,42.58
2022-08-24T15:15:55.127Z,42.50
2022-08-24T15:18:27.994Z,39.46
2022-08-24T15:21:04.577Z,41.61
2022-08-24T15:23:46.330Z,42.02
2022-08-24T15:26:19.923Z,42.76
2022-08-24T15:28:56.440Z,42.37
2022-08-24T15:31:29.250Z,42.67
2022-08-24T15:34:00.257Z,40.64
2022-08-24T15:36:30.005Z,41.09
2022-08-24T15:38:57.947Z,42.99
2022-08-24T15:41:31.537Z,40.63
2022-08-24T15:44:00.951Z,42.46
2022-08-24T15:46:33.058Z,42.12
2022-08-24T15:49:04.303Z,38.49
2022-08-24T15:51:44.619Z,38.02
2022-08-24T15:54:21.620Z,38.20
2022-08-24T15:56:55.999Z,41.00
2022-08-24T15:59:28.884Z,41.40
2022-08-24T16:02:16.305Z,38.77
2022-08-24T16:04:47.605Z,37.17
2022-08-24T16:07:17.790Z,36.63
2022-08-24T16:09:45.763Z,37.76
2022-08-24T16:12:16.966Z,39.18
2022-08-24T16:14:47.618Z,42.05
2022-08-24T16:17:23.726Z,40.72
2022-08-24T16:19:52.337Z,40.53
2022-08-24T16:22:28.399Z,41.59
2022-08-24T16:25:14.923Z,40.60
2022-08-24T16:28:07.950Z,41.97
2022-08-24T16:30:47.733Z,40.79
2022-08-24T16:33:43.114Z,41.13
2022-08-24T16:36:13.620Z,40.89
2022-08-24T16:38:46.607Z,40.80
2022-08-24T16:41:17.745Z,40.28
2022-08-24T16:43:47.527Z,40.38
2022-08-24T16:46:20.430Z,38.71
2022-08-24T16:48:48.122Z,39.45
2022-08-24T16:51:15.674Z,37.86
2022-08-24T16:53:43.684Z,37.73
2022-08-24T16:56:14.839Z,35.67
2022-08-24T16:58:46.212Z,35.50
2022-08-24T17:01:14.695Z,35.59
2022-08-24T17:03:42.695Z,34.82
2022-08-24T17:06:12.389Z,34.83
2022-08-24T17:08:40.317Z,33.55
2022-08-24T17:11:08.339Z,35.15
2022-08-24T17:13:51.337Z,35.53
2022-08-24T17:16:21.813Z,35.24
2022-08-24T17:18:49.506Z,34.92
2022-08-24T17:21:17.572Z,34.11
2022-08-24T17:23:45.642Z,32.95
2022-08-24T17:26:20.127Z,32.30
2022-08-24T17:28:49.352Z,32.33
2022-08-24T17:31:17.261Z,30.92
2022-08-24T17:33:46.475Z,30.50
2022-08-24T17:36:15.743Z,30.40
2022-08-24T17:38:49.391Z,29.90
2022-08-24T17:41:20.662Z,29.51
2022-08-24T17:43:48.286Z,29.27
2022-08-24T17:46:16.242Z,28.93
2022-08-24T17:48:46.845Z,28.49
2022-08-24T17:51:14.635Z,28.05
2022-08-24T17:53:42.594Z,28.10
2022-08-24T17:56:10.905Z,27.32
2022-08-24T17:58:58.693Z,27.77
2022-08-24T18:01:26.795Z,27.32
2022-08-24T18:03:56.010Z,27.08
2022-08-24T18:06:25.212Z,26.68
2022-08-24T18:08:56.519Z,26.34
2022-08-24T18:11:26.263Z,25.99
2022-08-24T18:13:54.646Z,25.83
2022-08-24T18:16:24.730Z,25.52
2022-08-24T18:18:53.574Z,25.36
2022-08-24T18:21:23.525Z,25.16
2022-08-24T18:23:52.163Z,24.78
2022-08-24T18:26:23.118Z,24.48
2022-08-24T18:28:57.099Z,24.58
2022-08-24T18:31:26.967Z,24.28
2022-08-24T18:33:55.274Z,24.45
2022-08-24T18:36:24.213Z,24.41
2022-08-24T18:38:53.251Z,24.62
2022-08-24T18:41:20.985Z,24.40
2022-08-24T18:43:49.307Z,24.49
2022-08-24T18:46:16.968Z,23.94
2022-08-24T18:48:44.608Z,24.36
2022-08-24T18:51:12.982Z,24.08
2022-08-24T18:53:42.035Z,23.59
2022-08-24T18:56:12.620Z,24.02
2022-08-24T18:58:40.526Z,23.10
2022-08-24T19:01:08.534Z,23.00
2022-08-24T19:03:36.390Z,23.15
2022-08-24T19:06:04.306Z,22.88
2022-08-24T19:08:32.960Z,22.85
2022-08-24T19:11:02.895Z,22.65
2022-08-24T19:13:30.916Z,22.35
2022-08-24T19:15:59.189Z,22.40
2022-08-24T19:18:27.030Z,22.30
2022-08-24T19:20:56.248Z,22.72
2022-08-24T19:23:27.819Z,22.55
2022-08-24T19:25:55.779Z,22.14
2022-08-24T19:28:26.990Z,22.13
2022-08-24T19:30:56.587Z,22.23
2022-08-24T19:33:26.164Z,22.11
2022-08-24T19:35:54.048Z,22.12
2022-08-24T19:38:25.782Z,22.01
2022-08-24T19:40:54.792Z,22.22
2022-08-24T19:43:24.802Z,22.65
2022-08-24T19:46:12.423Z,22.07
2022-08-24T19:48:41.016Z,22.29
2022-08-24T19:51:11.652Z,22.37
2022-08-24T19:53:39.946Z,21.69
2022-08-24T19:56:08.894Z,22.24
2022-08-24T19:58:46.921Z,21.50
2022-08-24T20:01:19.279Z,21.53
2022-08-24T20:03:47.331Z,21.98
2022-08-24T20:06:15.518Z,21.41
2022-08-24T20:08:43.591Z,21.28
2022-08-24T20:11:16.677Z,21.32
2022-08-24T20:13:46.110Z,21.01
2022-08-24T20:16:16.128Z,21.00
2022-08-24T20:18:44.375Z,20.82
2022-08-24T20:21:13.158Z,20.99
2022-08-24T20:23:40.933Z,21.14
2022-08-24T20:26:09.838Z,20.83
2022-08-24T20:28:42.347Z,21.07
2022-08-24T20:31:11.428Z,21.14
2022-08-24T20:33:39.576Z,21.24
2022-08-24T20:36:08.496Z,21.01
2022-08-24T20:38:36.315Z,21.00
2022-08-24T20:41:05.568Z,21.14
2022-08-24T20:43:33.260Z,21.19
2022-08-24T20:46:01.918Z,21.14
2022-08-24T20:48:34.563Z,21.16
2022-08-24T20:51:02.526Z,21.49
2022-08-24T20:53:30.247Z,21.25
2022-08-24T20:55:58.758Z,21.45
2022-08-24T20:58:26.544Z,21.29
2022-08-24T21:00:54.142Z,21.28
2022-08-24T21:03:21.910Z,21.41
2022-08-24T21:05:52.417Z,21.42
2022-08-24T21:08:20.791Z,21.17
2022-08-24T21:10:48.434Z,21.05
2022-08-24T21:13:16.046Z,20.92
2022-08-24T21:15:43.676Z,21.12
2022-08-24T21:18:11.822Z,21.05
2022-08-24T21:20:42.233Z,21.05
2022-08-24T21:23:18.286Z,21.02
2022-08-24T21:25:46.971Z,21.00
2022-08-24T21:28:18.318Z,20.96
2022-08-24T21:30:46.115Z,20.96
2022-08-24T21:33:31.705Z,20.99
2022-08-24T21:35:59.431Z,20.92
2022-08-24T21:38:31.264Z,20.75
2022-08-24T21:40:59.926Z,20.75
2022-08-24T21:43:27.818Z,20.69
2022-08-24T21:45:56.313Z,20.71
2022-08-24T21:48:23.932Z,20.52
2022-08-24T21:50:51.726Z,20.36
2022-08-24T21:53:19.303Z,20.57
2022-08-24T21:55:56.014Z,20.38
2022-08-24T21:58:24.028Z,20.33
2022-08-24T22:00:52.210Z,20.26
2022-08-24T22:03:19.978Z,20.50
2022-08-24T22:05:47.728Z,20.22
2022-08-24T22:08:15.342Z,20.22
2022-08-24T22:10:42.945Z,20.04
2022-08-24T22:13:14.403Z,20.12
2022-08-24T22:15:44.485Z,20.08
2022-08-24T22:18:12.336Z,19.86
2022-08-24T22:20:40.119Z,19.95
2022-08-24T22:23:07.721Z,19.95
2022-08-24T22:25:36.334Z,19.85
2022-08-24T22:28:04.716Z,19.93
2022-08-24T22:30:34.805Z,20.00
2022-08-24T22:33:02.781Z,19.85
2022-08-24T22:35:32.029Z,19.56
2022-08-24T22:38:12.755Z,19.68
2022-08-24T22:40:41.074Z,19.81
2022-08-24T22:43:09.055Z,19.74
2022-08-24T22:45:38.384Z,19.72
2022-08-24T22:48:06.220Z,19.86
2022-08-24T22:50:33.885Z,19.61
2022-08-24T22:53:01.758Z,19.89
2022-08-24T22:55:32.574Z,19.68
2022-08-24T22:58:00.241Z,19.87
2022-08-24T23:00:27.807Z,19.52
2022-08-24T23:02:56.736Z,19.21
2022-08-24T23:05:24.771Z,19.48
2022-08-24T23:07:53.108Z,19.43
2022-08-24T23:10:20.690Z,19.29
2022-08-24T23:12:48.332Z,19.30
2022-08-24T23:15:15.972Z,19.17
2022-08-24T23:17:43.921Z,19.13
2022-08-24T23:20:13.309Z,19.08
2022-08-24T23:22:41.917Z,19.20
2022-08-24T23:25:12.742Z,19.35
2022-08-24T23:27:40.858Z,19.13
2022-08-24T23:30:12.499Z,19.14
2022-08-24T23:32:42.099Z,19.00
2022-08-24T23:35:10.405Z,19.02
2022-08-24T23:37:39.470Z,18.90
2022-08-24T23:40:08.385Z,19.11
2022-08-24T23:42:36.039Z,18.71
2022-08-24T23:45:03.990Z,18.66
2022-08-24T23:47:35.998Z,18.57
2022-08-24T23:50:10.808Z,18.71
2022-08-24T23:52:41.122Z,18.85
2022-08-24T23:55:21.649Z,19.16
2022-08-24T23:57:50.783Z,18.85
